createdAt,value
2022-08-22T00:01:44.430Z,31.98
2022-08-22T00:02:53.053Z,25.53
2022-08-22T00:03:06.551Z,31.10
2022-08-22T00:06:58.453Z,32.14
2022-08-22T00:12:18.162Z,31.71
2022-08-22T00:17:49.962Z,31.96
2022-08-22T00:23:11.591Z,32.28
2022-08-22T00:28:21.509Z,31.90
2022-08-22T00:33:47.758Z,32.07
2022-08-22T00:39:11.820Z,31.74
2022-08-22T00:44:51.885Z,31.58
2022-08-22T00:50:17.216Z,32.21
2022-08-22T00:55:46.279Z,31.72
2022-08-22T01:00:56.105Z,32.03
2022-08-22T01:06:31.987Z,32.11
2022-08-22T01:12:11.953Z,32.26
2022-08-22T01:17:26.017Z,32.57
2022-08-22T01:23:05.211Z,32.66
2022-08-22T01:28:26.776Z,33.60
2022-08-22T01:33:48.118Z,31.23
2022-08-22T01:39:25.853Z,32.96
2022-08-22T01:44:30.512Z,34.30
2022-08-22T01:49:39.807Z,34.53
2022-08-22T01:55:13.772Z,34.57
2022-08-22T02:00:19.787Z,35.20
2022-08-22T02:05:53.490Z,34.80
2022-08-22T02:11:10.818Z,35.07
2022-08-22T02:16:22.713Z,35.52
2022-08-22T02:21:47.062Z,32.97
2022-08-22T02:27:24.013Z,35.59
2022-08-22T02:32:41.026Z,35.59
2022-08-22T02:37:48.898Z,36.70
2022-08-22T02:43:09.197Z,36.69
2022-08-22T02:48:20.384Z,37.40
2022-08-22T02:53:34.535Z,37.32
2022-08-22T02:58:51.659Z,37.10
2022-08-22T03:04:21.562Z,36.96
2022-08-22T03:09:30.104Z,37.85
2022-08-22T03:14:51.397Z,37.97
2022-08-22T03:20:25.617Z,37.82
2022-08-22T03:26:02.088Z,36.46
2022-08-22T03:31:19.211Z,36.82
2022-08-22T03:36:28.472Z,37.60
2022-08-22T03:41:49.585Z,37.62
2022-08-22T03:47:07.664Z,37.06
2022-08-22T03:52:12.617Z,37.56
2022-08-22T03:57:44.308Z,36.85
2022-08-22T04:02:58.663Z,37.14
2022-08-22T04:08:33.597Z,37.21
2022-08-22T04:13:48.771Z,37.00
2022-08-22T04:19:09.247Z,37.25
2022-08-22T04:24:30.178Z,36.98
2022-08-22T04:29:55.358Z,36.42
2022-08-22T04:35:11.887Z,36.41
2022-08-22T04:40:34.167Z,35.99
2022-08-22T04:45:45.559Z,35.75
2022-08-22T04:50:51.571Z,35.30
2022-08-22T04:56:07.641Z,34.67
2022-08-22T05:01:21.057Z,33.75
2022-08-22T05:06:27.466Z,33.17
2022-08-22T05:11:33.395Z,33.17
2022-08-22T05:16:42.710Z,33.02
2022-08-22T05:21:48.155Z,33.30
2022-08-22T05:26:55.930Z,33.50
2022-08-22T05:32:02.627Z,32.78
2022-08-22T05:37:04.841Z,32.17
2022-08-22T05:42:16.097Z,31.70
2022-08-22T05:47:22.212Z,30.19
2022-08-22T05:52:41.074Z,30.29
2022-08-22T05:57:50.468Z,30.78
2022-08-22T06:03:22.573Z,30.86
2022-08-22T06:08:31.858Z,31.43
2022-08-22T06:13:47.403Z,31.13
2022-08-22T06:18:52.480Z,30.64
2022-08-22T06:24:00.088Z,30.29
2022-08-22T06:29:03.118Z,30.46
2022-08-22T06:34:10.951Z,29.55
2022-08-22T06:39:18.974Z,28.90
2022-08-22T06:44:27.629Z,27.61
2022-08-22T06:49:32.738Z,25.88
2022-08-22T06:54:39.015Z,25.50
2022-08-22T06:59:44.028Z,25.19
2022-08-22T07:04:49.296Z,25.58
2022-08-22T07:09:55.546Z,27.25
2022-08-22T07:15:37.327Z,27.48
2022-08-22T07:20:46.712Z,26.81
2022-08-22T07:26:22.411Z,25.55
2022-08-22T07:31:51.287Z,23.24
2022-08-22T07:37:05.789Z,22.26
2022-08-22T07:42:17.045Z,22.37
2022-08-22T07:47:26.353Z,21.92
2022-08-22T07:52:37.267Z,20.85
2022-08-22T07:57:47.561Z,20.09
2022-08-22T08:02:53.363Z,19.89
2022-08-22T08:07:56.605Z,19.99
2022-08-22T08:13:03.776Z,19.06
2022-08-22T08:18:11.835Z,19.31
2022-08-22T08:23:23.400Z,17.96
2022-08-22T08:28:36.125Z,17.49
2022-08-22T08:33:41.376Z,16.63
2022-08-22T08:38:54.131Z,16.26
2022-08-22T08:44:07.763Z,16.47
2022-08-22T08:49:24.162Z,16.73
2022-08-22T08:54:45.107Z,16.85
2022-08-22T08:59:52.247Z,17.54
2022-08-22T09:05:26.536Z,17.44
2022-08-22T09:10:53.633Z,16.19
2022-08-22T09:16:10.611Z,15.56
2022-08-22T09:21:42.480Z,16.02
2022-08-22T09:27:02.104Z,16.28
2022-08-22T09:32:29.631Z,16.45
2022-08-22T09:38:09.197Z,15.71
2022-08-22T09:43:21.137Z,15.11
2022-08-22T09:48:53.845Z,15.68
2022-08-22T09:54:08.612Z,16.58
2022-08-22T09:59:14.788Z,16.50
2022-08-22T10:04:25.887Z,15.79
2022-08-22T10:10:07.082Z,15.50
2022-08-22T10:15:23.388Z,14.06
2022-08-22T10:20:34.842Z,14.57
2022-08-22T10:25:42.345Z,14.13
2022-08-22T10:31:01.002Z,14.14
2022-08-22T10:36:11.999Z,14.23
2022-08-22T10:41:26.461Z,13.98
2022-08-22T10:46:42.220Z,13.41
2022-08-22T10:52:17.277Z,13.74
2022-08-22T10:58:01.099Z,13.91
2022-08-22T11:03:23.194Z,13.34
2022-08-22T11:08:35.392Z,13.39
2022-08-22T11:14:06.945Z,13.74
2022-08-22T11:19:16.707Z,12.99
2022-08-22T11:24:35.764Z,12.58
2022-08-22T11:30:07.004Z,12.36
2022-08-22T11:35:26.020Z,11.73
2022-08-22T11:40:55.790Z,12.04
2022-08-22T11:46:01.908Z,12.62
2022-08-22T11:51:13.609Z,11.62
2022-08-22T11:56:33.067Z,12.24
2022-08-22T12:01:47.940Z,12.51
2022-08-22T12:07:01.458Z,13.06
2022-08-22T12:12:12.781Z,13.65
2022-08-22T12:17:50.674Z,14.35
2022-08-22T12:23:05.299Z,14.48
2022-08-22T12:28:23.041Z,14.52
2022-08-22T12:33:44.810Z,14.29
2022-08-22T12:39:07.714Z,15.11
2022-08-22T12:44:18.991Z,16.29
2022-08-22T12:49:21.075Z,17.55
2022-08-22T12:54:36.270Z,18.74
2022-08-22T12:59:45.843Z,18.91
2022-08-22T13:04:55.839Z,19.27
2022-08-22T13:10:22.925Z,19.86
2022-08-22T13:15:28.318Z,20.00
2022-08-22T13:20:45.132Z,20.17
2022-08-22T13:26:03.558Z,20.06
2022-08-22T13:31:21.230Z,20.10
2022-08-22T13:36:24.230Z,21.12
2022-08-22T13:41:33.172Z,21.36
2022-08-22T13:46:44.509Z,21.02
2022-08-22T13:51:59.465Z,21.64
2022-08-22T13:57:05.560Z,21.64
2022-08-22T14:02:18.630Z,21.44
2022-08-22T14:07:38.048Z,21.86
2022-08-22T14:12:50.131Z,22.21
2022-08-22T14:18:00.800Z,22.10
2022-08-22T14:23:27.051Z,22.06
2022-08-22T14:28:33.476Z,22.88
2022-08-22T14:33:46.694Z,22.76
2022-08-22T14:39:06.403Z,22.69
2022-08-22T14:44:18.096Z,22.87
2022-08-22T14:49:20.915Z,23.40
2022-08-22T14:54:29.759Z,23.17
2022-08-22T14:59:38.896Z,23.46
2022-08-22T15:04:44.710Z,23.43
2022-08-22T15:09:56.821Z,23.60
2022-08-22T15:15:01.936Z,24.21
2022-08-22T15:20:38.263Z,23.01
2022-08-22T15:26:00.839Z,23.45
2022-08-22T15:31:17.299Z,23.07
2022-08-22T15:36:25.761Z,23.60
2022-08-22T15:41:36.654Z,23.65
2022-08-22T15:46:39.077Z,22.42
2022-08-22T15:51:50.289Z,23.71
2022-08-22T15:56:52.865Z,23.85
2022-08-22T16:02:04.860Z,23.84
2022-08-22T16:08:02.842Z,23.58
2022-08-22T16:13:10.681Z,24.20
2022-08-22T16:18:37.160Z,23.91
2022-08-22T16:23:53.989Z,24.37
2022-08-22T16:29:14.822Z,24.82
2022-08-22T16:34:33.588Z,25.11
2022-08-22T16:39:51.420Z,25.25
2022-08-22T16:45:02.609Z,25.78
2022-08-22T16:50:22.502Z,26.39
2022-08-22T16:55:30.823Z,26.43
2022-08-22T17:01:26.901Z,26.11
2022-08-22T17:06:49.979Z,26.99
2022-08-22T17:12:23.820Z,26.71
2022-08-22T17:17:47.177Z,27.65
2022-08-22T17:22:49.338Z,27.36
2022-08-22T17:28:34.294Z,26.94
2022-08-22T17:34:08.375Z,27.00
2022-08-22T17:39:38.005Z,27.33
2022-08-22T17:45:04.516Z,27.60
2022-08-22T17:50:18.728Z,27.72
2022-08-22T17:55:31.368Z,27.47
2022-08-22T18:00:48.973Z,27.85
2022-08-22T18:06:31.407Z,27.69
2022-08-22T18:12:15.826Z,28.57
2022-08-22T18:17:31.793Z,28.21
2022-08-22T18:22:46.388Z,28.01
2022-08-22T18:28:26.774Z,28.35
2022-08-22T18:33:48.700Z,28.66
2022-08-22T18:39:07.650Z,28.58
2022-08-22T18:44:20.831Z,28.38
2022-08-22T18:49:23.032Z,29.14
2022-08-22T18:54:47.594Z,28.62
2022-08-22T19:00:01.856Z,28.79
2022-08-22T19:05:27.558Z,28.79
2022-08-22T19:10:48.100Z,28.83
2022-08-22T19:16:08.173Z,28.88
2022-08-22T19:21:41.193Z,29.28
2022-08-22T19:26:48.230Z,29.80
2022-08-22T19:31:56.379Z,29.50
2022-08-22T19:37:33.224Z,29.17
2022-08-22T19:42:38.978Z,30.13
2022-08-22T19:47:42.905Z,30.51
2022-08-22T19:52:56.987Z,30.28
2022-08-22T19:58:31.926Z,29.85
2022-08-22T20:03:53.790Z,30.75
2022-08-22T20:09:33.965Z,30.35
2022-08-22T20:14:44.589Z,31.27
2022-08-22T20:25:42.357Z,31.33
2022-08-22T20:30:50.170Z,31.89
2022-08-22T20:35:56.053Z,32.21
2022-08-22T20:41:21.092Z,31.70
2022-08-22T20:46:38.611Z,32.68
2022-08-22T20:51:58.276Z,32.24
2022-08-22T20:57:17.738Z,32.09
2022-08-22T21:02:35.330Z,32.07
2022-08-22T21:07:43.864Z,32.47
2022-08-22T21:13:21.908Z,32.66
2022-08-22T21:18:36.729Z,32.77
2022-08-22T21:23:43.550Z,33.38
2022-08-22T21:28:57.818Z,32.90
2022-08-22T21:34:01.173Z,33.10
2022-08-22T21:39:17.552Z,32.75
2022-08-22T21:44:30.904Z,33.24
2022-08-22T21:49:33.063Z,33.54
2022-08-22T21:54:40.246Z,33.86
2022-08-22T21:59:51.668Z,34.29
2022-08-22T22:05:03.883Z,34.08
2022-08-22T22:10:12.233Z,34.12
2022-08-22T22:15:18.053Z,34.40
2022-08-22T22:20:23.565Z,34.54
2022-08-22T22:25:40.345Z,34.69
2022-08-22T22:30:45.765Z,34.71
2022-08-22T22:35:49.170Z,35.08
2022-08-22T22:40:52.667Z,35.29
2022-08-22T22:45:54.850Z,35.28
2022-08-22T22:50:58.777Z,35.28
2022-08-22T22:56:01.090Z,35.38
2022-08-22T23:01:17.099Z,34.85
2022-08-22T23:06:22.694Z,35.47
2022-08-22T23:11:29.890Z,35.06
2022-08-22T23:16:37.008Z,35.95
2022-08-22T23:21:39.891Z,35.80
2022-08-22T23:26:42.662Z,36.13
2022-08-22T23:31:57.882Z,35.89
2022-08-22T23:37:01.847Z,36.47
2022-08-22T23:42:04.653Z,36.52
2022-08-22T23:47:08.281Z,36.68
2022-08-22T23:52:12.376Z,37.00
2022-08-22T23:57:14.529Z,37.11
